createdAt,value
2023-03-28T00:01:06.460Z,4.14
2023-03-28T00:03:36.460Z,4.18
2023-03-28T00:06:05.581Z,3.95
2023-03-28T00:08:32.582Z,3.95
2023-03-28T00:11:22.431Z,3.92
2023-03-28T00:13:53.644Z,3.97
2023-03-28T00:16:20.269Z,4.13
2023-03-28T00:18:46.960Z,4.26
2023-03-28T00:21:23.499Z,4.29
2023-03-28T00:23:52.688Z,4.41
2023-03-28T00:26:20.436Z,4.30
2023-03-28T00:28:47.647Z,4.17
2023-03-28T00:31:14.889Z,4.05
2023-03-28T00:33:42.126Z,4.04
2023-03-28T00:36:10.418Z,4.01
2023-03-28T00:38:38.645Z,4.11
2023-03-28T00:41:05.949Z,4.27
2023-03-28T00:43:53.172Z,4.19
2023-03-28T00:46:36.560Z,3.89
2023-03-28T00:49:05.898Z,3.89
2023-03-28T00:51:35.941Z,3.89
2023-03-28T00:54:03.113Z,3.79
2023-03-28T00:56:32.237Z,3.68
2023-03-28T00:59:01.931Z,3.87
2023-03-28T01:01:28.506Z,4.11
2023-03-28T01:04:03.228Z,4.28
2023-03-28T01:06:34.862Z,4.28
2023-03-28T01:09:04.650Z,4.02
2023-03-28T01:11:32.401Z,4.06
2023-03-28T01:14:00.732Z,4.21
2023-03-28T01:16:30.851Z,4.29
2023-03-28T01:19:02.150Z,4.32
2023-03-28T01:21:31.916Z,4.36
2023-03-28T01:24:11.284Z,4.42
2023-03-28T01:26:48.033Z,4.36
2023-03-28T01:29:24.509Z,4.37
2023-03-28T01:31:51.048Z,4.27
2023-03-28T01:34:36.250Z,4.03
2023-03-28T01:37:05.777Z,4.10
2023-03-28T01:39:46.944Z,4.01
2023-03-28T01:42:25.879Z,4.02
2023-03-28T01:44:52.398Z,4.07
2023-03-28T01:47:38.671Z,4.18
2023-03-28T01:50:11.273Z,4.19
2023-03-28T01:52:47.262Z,3.94
2023-03-28T01:55:30.209Z,3.91
2023-03-28T01:58:06.775Z,3.76
2023-03-28T02:00:38.048Z,3.71
2023-03-28T02:03:11.831Z,3.71
2023-03-28T02:05:39.340Z,3.64
2023-03-28T02:08:10.724Z,3.65
2023-03-28T02:10:39.477Z,3.61
2023-03-28T02:13:09.580Z,3.60
2023-03-28T02:15:36.125Z,3.61
2023-03-28T02:18:06.997Z,3.64
2023-03-28T02:20:35.104Z,3.59
2023-03-28T02:23:01.636Z,3.49
2023-03-28T02:25:29.493Z,3.43
2023-03-28T02:27:57.626Z,3.39
2023-03-28T02:30:24.300Z,3.42
2023-03-28T02:32:51.674Z,3.50
2023-03-28T02:35:24.239Z,3.55
2023-03-28T02:38:01.722Z,3.61
2023-03-28T02:40:31.467Z,3.62
2023-03-28T02:42:59.590Z,3.49
2023-03-28T02:45:37.767Z,3.37
2023-03-28T02:48:07.529Z,3.37
2023-03-28T02:50:36.450Z,3.39
2023-03-28T02:53:15.789Z,3.53
2023-03-28T02:56:06.034Z,3.53
2023-03-28T02:58:40.247Z,3.64
2023-03-28T03:01:07.059Z,3.74
2023-03-28T03:03:36.506Z,3.74
2023-03-28T03:06:05.976Z,3.75
2023-03-28T03:08:32.942Z,3.79
2023-03-28T03:10:59.729Z,3.76
2023-03-28T03:13:26.718Z,3.70
2023-03-28T03:15:56.370Z,3.81
2023-03-28T03:18:23.322Z,3.71
2023-03-28T03:20:50.456Z,3.84
2023-03-28T03:23:17.655Z,3.86
2023-03-28T03:25:45.277Z,3.90
2023-03-28T03:28:12.083Z,3.94
2023-03-28T03:30:38.670Z,4.00
2023-03-28T03:33:05.966Z,3.98
2023-03-28T03:35:35.670Z,4.05
2023-03-28T03:38:03.864Z,4.01
2023-03-28T03:40:30.448Z,4.01
2023-03-28T03:42:57.010Z,4.04
2023-03-28T03:45:23.581Z,3.99
2023-03-28T03:47:50.277Z,4.01
2023-03-28T03:50:16.899Z,3.95
2023-03-28T03:52:43.485Z,3.95
2023-03-28T03:55:10.198Z,3.98
2023-03-28T03:57:36.912Z,3.88
2023-03-28T04:00:11.379Z,3.88
2023-03-28T04:02:38.842Z,3.84
2023-03-28T04:05:07.213Z,3.86
2023-03-28T04:07:33.727Z,3.89
2023-03-28T04:10:00.494Z,3.85
2023-03-28T04:12:27.072Z,3.83
2023-03-28T04:14:53.620Z,3.85
2023-03-28T04:17:21.500Z,3.73
2023-03-28T04:19:49.757Z,3.70
2023-03-28T04:22:18.331Z,3.57
2023-03-28T04:24:45.907Z,3.61
2023-03-28T04:27:12.430Z,3.59
2023-03-28T04:29:39.447Z,3.57
2023-03-28T04:32:06.719Z,3.56
2023-03-28T04:34:33.995Z,3.55
2023-03-28T04:37:02.117Z,3.54
2023-03-28T04:39:33.935Z,3.46
2023-03-28T04:42:02.119Z,3.43
2023-03-28T04:44:32.500Z,3.48
2023-03-28T04:47:09.159Z,3.53
2023-03-28T04:49:35.682Z,3.63
2023-03-28T04:52:02.274Z,3.73
2023-03-28T04:54:29.010Z,3.79
2023-03-28T04:56:55.761Z,3.88
2023-03-28T04:59:22.282Z,3.91
2023-03-28T05:01:51.729Z,3.89
2023-03-28T05:04:19.070Z,3.83
2023-03-28T05:06:46.438Z,3.85
2023-03-28T05:09:13.685Z,3.60
2023-03-28T05:11:40.772Z,3.77
2023-03-28T05:14:07.383Z,3.76
2023-03-28T05:16:34.396Z,3.76
2023-03-28T05:19:01.673Z,3.89
2023-03-28T05:21:28.596Z,3.84
2023-03-28T05:23:55.697Z,4.08
2023-03-28T05:26:22.294Z,4.47
2023-03-28T05:28:48.957Z,5.73
2023-03-28T05:31:17.492Z,7.35
2023-03-28T05:33:44.186Z,8.54
2023-03-28T05:36:11.086Z,8.28
2023-03-28T05:38:37.704Z,9.28
2023-03-28T05:41:04.544Z,9.97
2023-03-28T05:43:31.136Z,10.17
2023-03-28T05:45:57.817Z,11.75
2023-03-28T05:48:24.408Z,10.22
2023-03-28T05:50:51.156Z,9.06
2023-03-28T05:53:17.849Z,7.88
2023-03-28T05:55:44.375Z,7.05
2023-03-28T05:58:10.860Z,8.85
2023-03-28T06:00:37.534Z,8.48
2023-03-28T06:03:07.476Z,8.66
2023-03-28T06:05:34.562Z,9.84
2023-03-28T06:08:01.872Z,7.81
2023-03-28T06:10:28.431Z,6.16
2023-03-28T06:12:55.411Z,5.96
2023-03-28T06:15:22.052Z,6.44
2023-03-28T06:17:51.886Z,6.41
2023-03-28T06:20:18.499Z,6.22
2023-03-28T06:22:45.013Z,7.06
2023-03-28T06:25:11.527Z,8.38
2023-03-28T06:27:38.135Z,8.26
2023-03-28T06:30:05.151Z,7.66
2023-03-28T06:32:31.907Z,8.80
2023-03-28T06:34:58.543Z,9.75
2023-03-28T06:37:25.238Z,10.03
2023-03-28T06:39:53.187Z,11.25
2023-03-28T06:42:20.328Z,12.32
2023-03-28T06:44:46.913Z,11.84
2023-03-28T06:47:13.493Z,10.06
2023-03-28T06:49:40.579Z,10.73
2023-03-28T06:52:08.047Z,10.08
2023-03-28T06:54:34.700Z,11.33
2023-03-28T06:57:01.311Z,10.03
2023-03-28T06:59:27.892Z,10.76
2023-03-28T07:01:54.515Z,9.67
2023-03-28T07:04:21.342Z,7.87
2023-03-28T07:06:48.964Z,8.70
2023-03-28T07:09:16.012Z,9.28
2023-03-28T07:11:42.532Z,11.13
2023-03-28T07:14:09.178Z,10.33
2023-03-28T07:16:36.031Z,12.86
2023-03-28T07:19:02.622Z,14.52
2023-03-28T07:21:29.184Z,14.53
2023-03-28T07:23:55.869Z,13.79
2023-03-28T07:26:22.360Z,15.72
2023-03-28T07:28:49.553Z,14.99
2023-03-28T07:31:16.870Z,13.38
2023-03-28T07:33:43.498Z,15.17
2023-03-28T07:36:11.777Z,14.67
2023-03-28T07:38:38.475Z,14.46
2023-03-28T07:41:05.538Z,13.76
2023-03-28T07:43:32.177Z,13.05
2023-03-28T07:46:02.509Z,14.21
2023-03-28T07:48:29.365Z,14.19
2023-03-28T07:50:55.916Z,14.80
2023-03-28T07:53:22.406Z,11.11
2023-03-28T07:55:55.058Z,9.57
2023-03-28T07:58:22.038Z,10.63
2023-03-28T08:01:03.560Z,10.60
2023-03-28T08:03:30.224Z,10.85
2023-03-28T08:05:57.808Z,11.11
2023-03-28T08:08:24.377Z,11.95
2023-03-28T08:10:51.532Z,11.36
2023-03-28T08:13:21.003Z,9.48
2023-03-28T08:15:53.686Z,9.70
2023-03-28T08:18:21.643Z,8.68
2023-03-28T08:20:48.514Z,7.57
2023-03-28T08:23:15.346Z,8.14
2023-03-28T08:25:42.464Z,8.42
2023-03-28T08:28:09.813Z,11.19
2023-03-28T08:30:36.427Z,11.95
2023-03-28T08:33:04.732Z,13.05
2023-03-28T08:35:31.797Z,14.18
2023-03-28T08:37:59.434Z,14.24
2023-03-28T08:40:28.165Z,12.53
2023-03-28T08:43:06.444Z,14.29
2023-03-28T08:45:42.132Z,15.38
2023-03-28T08:48:11.604Z,14.01
2023-03-28T08:50:53.589Z,12.87
2023-03-28T08:53:30.537Z,12.61
2023-03-28T08:55:58.094Z,12.09
2023-03-28T08:58:27.158Z,14.34
2023-03-28T09:00:53.978Z,13.37
2023-03-28T09:03:22.996Z,12.84
2023-03-28T09:05:50.156Z,11.20
2023-03-28T09:08:24.476Z,11.70
2023-03-28T09:11:09.149Z,13.02
2023-03-28T09:13:47.910Z,13.84
2023-03-28T09:16:23.513Z,14.50
2023-03-28T09:19:11.320Z,13.62
2023-03-28T09:21:37.842Z,12.67
2023-03-28T09:24:17.441Z,13.33
2023-03-28T09:26:47.666Z,14.54
2023-03-28T09:29:16.355Z,14.06
2023-03-28T09:31:48.142Z,15.61
2023-03-28T09:34:23.332Z,16.07
2023-03-28T09:39:30.275Z,14.77
2023-03-28T09:42:00.513Z,12.42
2023-03-28T09:44:30.677Z,12.12
2023-03-28T09:46:59.766Z,11.17
2023-03-28T09:49:26.703Z,12.23
2023-03-28T09:51:54.921Z,11.01
2023-03-28T09:54:28.804Z,11.71
2023-03-28T09:57:00.092Z,10.92
2023-03-28T09:59:30.526Z,11.51
2023-03-28T10:01:57.843Z,12.06
2023-03-28T10:04:27.259Z,11.70
2023-03-28T10:06:54.887Z,12.70
2023-03-28T10:09:23.300Z,12.13
2023-03-28T10:11:57.583Z,10.97
2023-03-28T10:14:43.255Z,11.88
2023-03-28T10:17:18.038Z,11.76
2023-03-28T10:19:45.637Z,11.14
2023-03-28T10:22:14.252Z,10.22
2023-03-28T10:24:41.263Z,10.57
2023-03-28T10:27:19.002Z,10.55
2023-03-28T10:29:46.304Z,10.73
2023-03-28T10:32:24.973Z,11.29
2023-03-28T10:35:02.226Z,10.66
2023-03-28T10:37:30.657Z,11.17
2023-03-28T10:40:16.385Z,10.10
2023-03-28T10:42:45.007Z,10.17
2023-03-28T10:45:30.432Z,9.18
2023-03-28T10:47:59.173Z,7.78
2023-03-28T10:50:31.072Z,7.76
2023-03-28T10:53:10.839Z,7.97
2023-03-28T10:55:40.672Z,7.70
2023-03-28T10:58:13.363Z,7.55
2023-03-28T11:00:46.683Z,7.50
2023-03-28T11:03:31.893Z,7.77
2023-03-28T11:06:09.942Z,8.18
2023-03-28T11:09:00.375Z,8.81
2023-03-28T11:11:27.333Z,8.71
2023-03-28T11:14:02.949Z,9.13
2023-03-28T11:16:38.601Z,8.85
2023-03-28T11:19:16.364Z,8.67
2023-03-28T11:22:11.242Z,9.01
2023-03-28T11:24:46.929Z,8.95
2023-03-28T11:27:33.671Z,9.23
2023-03-28T11:30:12.087Z,9.67
2023-03-28T11:32:43.331Z,9.45
2023-03-28T11:35:27.262Z,8.22
2023-03-28T11:38:11.742Z,7.99
2023-03-28T11:40:50.906Z,8.85
2023-03-28T11:43:25.545Z,8.81
2023-03-28T11:45:53.551Z,9.03
2023-03-28T11:48:33.571Z,8.73
2023-03-28T11:51:06.624Z,8.87
2023-03-28T11:53:40.055Z,9.31
2023-03-28T11:56:06.972Z,8.95
2023-03-28T11:58:36.268Z,8.63
2023-03-28T12:01:06.345Z,8.27
2023-03-28T12:03:34.452Z,8.95
2023-03-28T12:06:10.363Z,8.33
2023-03-28T12:08:51.942Z,8.31
2023-03-28T12:11:25.686Z,8.19
2023-03-28T12:14:09.012Z,8.30
2023-03-28T12:16:43.028Z,7.96
2023-03-28T12:19:15.069Z,8.21
2023-03-28T12:21:47.191Z,8.06
2023-03-28T12:24:25.763Z,8.02
2023-03-28T12:26:54.764Z,8.13
2023-03-28T12:29:22.740Z,7.96
2023-03-28T12:31:53.364Z,7.79
2023-03-28T12:34:32.066Z,8.18
2023-03-28T12:37:11.983Z,8.71
2023-03-28T12:39:54.881Z,8.56
2023-03-28T12:42:23.624Z,8.37
2023-03-28T12:45:01.081Z,8.15
2023-03-28T12:47:36.681Z,7.29
2023-03-28T12:50:24.143Z,7.15
2023-03-28T12:52:52.312Z,7.02
2023-03-28T12:55:24.929Z,6.11
2023-03-28T12:57:53.398Z,6.40
2023-03-28T13:00:32.207Z,6.32
2023-03-28T13:03:07.877Z,5.79
2023-03-28T13:05:46.458Z,5.41
2023-03-28T13:08:21.740Z,5.57
2023-03-28T13:11:06.643Z,5.23
2023-03-28T13:13:45.354Z,5.43
2023-03-28T13:16:17.160Z,5.20
2023-03-28T13:18:48.018Z,5.18
2023-03-28T13:21:34.546Z,5.11
2023-03-28T13:24:01.148Z,5.15
2023-03-28T13:26:47.615Z,4.97
2023-03-28T13:29:14.222Z,5.15
2023-03-28T13:31:42.851Z,5.10
2023-03-28T13:34:17.996Z,5.06
2023-03-28T13:36:50.945Z,4.70
2023-03-28T13:39:25.238Z,5.06
2023-03-28T13:41:52.382Z,5.03
2023-03-28T13:44:20.808Z,4.97
2023-03-28T13:46:48.780Z,4.72
2023-03-28T13:49:19.901Z,4.59
2023-03-28T13:51:46.436Z,4.77
2023-03-28T13:54:13.606Z,4.65
2023-03-28T13:56:44.405Z,4.57
2023-03-28T13:59:18.283Z,4.43
2023-03-28T14:01:47.332Z,4.20
2023-03-28T14:04:21.834Z,4.17
2023-03-28T14:06:49.351Z,4.10
2023-03-28T14:09:19.790Z,4.22
2023-03-28T14:11:46.897Z,4.35
2023-03-28T14:14:13.446Z,4.13
2023-03-28T14:16:42.069Z,4.09
2023-03-28T14:19:09.550Z,4.13
2023-03-28T14:21:36.166Z,4.28
2023-03-28T14:24:04.750Z,4.36
2023-03-28T14:26:34.148Z,4.35
2023-03-28T14:29:03.092Z,4.24
2023-03-28T14:31:35.008Z,3.97
2023-03-28T14:34:13.327Z,3.98
2023-03-28T14:36:58.748Z,3.90
2023-03-28T14:39:26.757Z,3.54
2023-03-28T14:41:54.048Z,3.25
2023-03-28T14:44:21.497Z,3.37
2023-03-28T14:46:49.610Z,3.27
2023-03-28T14:49:21.496Z,3.15
2023-03-28T14:51:53.909Z,3.04
2023-03-28T14:54:37.778Z,2.89
2023-03-28T14:57:05.293Z,2.91
2023-03-28T14:59:37.001Z,2.82
2023-03-28T15:02:04.772Z,2.66
2023-03-28T15:04:32.225Z,2.65
2023-03-28T15:06:59.019Z,2.39
2023-03-28T15:09:30.239Z,2.36
2023-03-28T15:11:57.379Z,2.32
2023-03-28T15:14:30.165Z,2.10
2023-03-28T15:16:57.179Z,2.05
2023-03-28T15:19:32.186Z,1.86
2023-03-28T15:22:04.446Z,1.93
2023-03-28T15:24:31.539Z,1.95
2023-03-28T15:27:01.602Z,1.88
2023-03-28T15:29:54.744Z,1.83
2023-03-28T15:32:21.463Z,1.59
2023-03-28T15:34:54.498Z,1.69
2023-03-28T15:37:22.737Z,1.79
2023-03-28T15:39:53.172Z,1.60
2023-03-28T15:42:19.822Z,1.64
2023-03-28T15:44:52.320Z,1.64
2023-03-28T15:47:22.526Z,1.31
2023-03-28T15:49:49.251Z,1.55
2023-03-28T15:52:18.447Z,1.39
2023-03-28T15:54:48.762Z,1.35
2023-03-28T15:57:17.657Z,1.50
2023-03-28T15:59:48.708Z,1.55
2023-03-28T16:02:24.549Z,1.37
2023-03-28T16:05:09.726Z,1.09
2023-03-28T16:07:48.921Z,1.02
2023-03-28T16:10:25.745Z,1.01
2023-03-28T16:12:52.438Z,0.95
2023-03-28T16:15:19.599Z,1.12
2023-03-28T16:17:47.463Z,1.07
2023-03-28T16:20:15.874Z,0.71
2023-03-28T16:22:42.796Z,0.65
2023-03-28T16:25:09.497Z,0.58
2023-03-28T16:27:37.919Z,-0.03
2023-03-28T16:30:07.814Z,0.19
2023-03-28T16:32:34.436Z,0.32
2023-03-28T16:35:01.042Z,0.45
2023-03-28T16:37:27.539Z,0.41
2023-03-28T16:39:54.097Z,0.10
2023-03-28T16:42:21.058Z,0.08
2023-03-28T16:44:47.652Z,0.27
2023-03-28T16:47:15.675Z,0.21
2023-03-28T16:49:42.272Z,0.33
2023-03-28T16:52:08.884Z,0.32
2023-03-28T16:54:35.784Z,0.25
2023-03-28T16:57:02.677Z,0.28
2023-03-28T16:59:29.301Z,0.30
2023-03-28T17:01:56.022Z,0.33
2023-03-28T17:04:22.677Z,0.29
2023-03-28T17:06:49.270Z,0.31
2023-03-28T17:09:16.065Z,0.35
2023-03-28T17:11:43.011Z,0.27
2023-03-28T17:14:09.684Z,0.19
2023-03-28T17:16:40.345Z,0.36
2023-03-28T17:19:07.786Z,0.28
2023-03-28T17:21:35.040Z,0.20
2023-03-28T17:24:02.141Z,0.26
2023-03-28T17:26:28.736Z,0.33
2023-03-28T17:28:58.320Z,0.28
2023-03-28T17:31:25.770Z,0.29
2023-03-28T17:33:52.549Z,0.24
2023-03-28T17:36:23.572Z,0.20
2023-03-28T17:38:51.999Z,0.32
2023-03-28T17:41:20.175Z,0.27
2023-03-28T17:43:46.795Z,0.20
2023-03-28T17:46:13.473Z,0.34
2023-03-28T17:48:40.794Z,0.23
2023-03-28T17:51:09.279Z,0.38
2023-03-28T17:53:36.328Z,0.40
2023-03-28T17:56:03.295Z,0.39
2023-03-28T17:58:30.525Z,0.25
2023-03-28T18:00:57.073Z,0.26
2023-03-28T18:03:24.305Z,0.41
2023-03-28T18:05:53.915Z,0.38
2023-03-28T18:08:23.971Z,0.34
2023-03-28T18:10:50.685Z,0.37
2023-03-28T18:13:17.429Z,0.14
2023-03-28T18:15:44.028Z,0.29
2023-03-28T18:18:12.882Z,0.31
2023-03-28T18:20:41.976Z,0.22
2023-03-28T18:23:08.514Z,0.28
2023-03-28T18:25:38.427Z,0.21
2023-03-28T18:28:05.519Z,0.11
2023-03-28T18:30:32.097Z,0.10
2023-03-28T18:32:59.043Z,0.10
2023-03-28T18:35:27.108Z,0.16
2023-03-28T18:37:53.792Z,0.10
2023-03-28T18:40:20.860Z,0.08
2023-03-28T18:42:47.466Z,0.08
2023-03-28T18:45:14.058Z,-0.01
2023-03-28T18:47:41.416Z,-0.01
2023-03-28T18:50:10.493Z,0.17
2023-03-28T18:52:37.567Z,0.18
2023-03-28T18:55:08.049Z,0.15
2023-03-28T18:57:35.049Z,0.13
2023-03-28T19:00:02.137Z,0.13
2023-03-28T19:02:29.094Z,0.21
2023-03-28T19:04:56.308Z,0.14
2023-03-28T19:07:23.036Z,0.01
2023-03-28T19:09:50.170Z,0.03
2023-03-28T19:12:17.041Z,-0.06
2023-03-28T19:14:43.659Z,-0.06
2023-03-28T19:17:10.177Z,-0.16
2023-03-28T19:19:37.661Z,-0.14
2023-03-28T19:22:06.442Z,0.03
2023-03-28T19:24:33.566Z,-0.02
2023-03-28T19:27:01.000Z,-0.08
2023-03-28T19:29:30.226Z,-0.18
2023-03-28T19:31:56.870Z,-0.16
2023-03-28T19:34:23.396Z,-0.18
2023-03-28T19:36:50.072Z,-0.23
2023-03-28T19:39:16.795Z,-0.13
2023-03-28T19:41:43.310Z,-0.18
2023-03-28T19:44:09.911Z,-0.25
2023-03-28T19:46:38.788Z,-0.31
2023-03-28T19:49:06.518Z,-0.16
2023-03-28T19:51:33.982Z,-0.28
2023-03-28T19:54:00.772Z,-0.18
2023-03-28T19:56:28.551Z,-0.21
2023-03-28T19:58:56.200Z,-0.23
2023-03-28T20:01:22.819Z,-0.21
2023-03-28T20:03:52.873Z,-0.23
2023-03-28T20:06:20.826Z,-0.23
2023-03-28T20:08:47.368Z,-0.29
2023-03-28T20:11:14.398Z,-0.31
2023-03-28T20:13:41.382Z,-0.45
2023-03-28T20:16:09.261Z,-0.39
2023-03-28T20:18:37.230Z,-0.40
2023-03-28T20:21:10.427Z,-0.33
2023-03-28T20:23:37.184Z,-0.39
2023-03-28T20:26:20.480Z,-0.34
2023-03-28T20:28:50.067Z,-0.30
2023-03-28T20:31:18.664Z,-0.46
2023-03-28T20:33:45.443Z,-0.56
2023-03-28T20:36:12.288Z,-0.53
2023-03-28T20:38:38.967Z,-0.56
2023-03-28T20:41:09.600Z,-0.76
2023-03-28T20:43:40.734Z,-0.70
2023-03-28T20:46:09.778Z,-0.70
2023-03-28T20:48:39.028Z,-0.68
2023-03-28T20:51:17.421Z,-0.87
2023-03-28T20:53:49.614Z,-0.71
2023-03-28T20:56:20.167Z,-0.79
2023-03-28T20:58:47.324Z,-0.87
2023-03-28T21:01:14.811Z,-0.76
2023-03-28T21:03:47.342Z,-0.98
2023-03-28T21:06:15.898Z,-0.97
2023-03-28T21:08:43.371Z,-0.94
2023-03-28T21:11:09.856Z,-1.07
2023-03-28T21:13:36.425Z,-1.02
2023-03-28T21:16:02.970Z,-1.14
2023-03-28T21:18:29.778Z,-1.04
2023-03-28T21:20:56.672Z,-1.11
2023-03-28T21:23:23.360Z,-1.09
2023-03-28T21:25:52.847Z,-1.08
2023-03-28T21:28:19.518Z,-1.14
2023-03-28T21:30:56.110Z,-1.14
2023-03-28T21:33:22.732Z,-1.28
2023-03-28T21:35:52.889Z,-1.20
2023-03-28T21:38:19.511Z,-1.30
2023-03-28T21:40:46.930Z,-1.33
2023-03-28T21:43:13.728Z,-1.31
2023-03-28T21:45:42.990Z,-1.47
2023-03-28T21:48:09.726Z,-1.50
2023-03-28T21:50:38.838Z,-1.42
2023-03-28T21:53:05.985Z,-1.48
2023-03-28T21:55:32.486Z,-1.50
2023-03-28T21:57:59.324Z,-1.64
2023-03-28T22:00:25.986Z,-1.58
2023-03-28T22:02:53.225Z,-1.57
2023-03-28T22:05:28.648Z,-1.58
2023-03-28T22:07:56.601Z,-1.60
2023-03-28T22:10:26.683Z,-1.67
2023-03-28T22:12:53.792Z,-1.70
2023-03-28T22:15:20.400Z,-1.79
2023-03-28T22:17:46.991Z,-1.70
2023-03-28T22:20:14.429Z,-1.72
2023-03-28T22:22:45.177Z,-1.75
2023-03-28T22:25:12.713Z,-1.77
2023-03-28T22:27:39.835Z,-1.79
2023-03-28T22:30:10.383Z,-1.74
2023-03-28T22:32:38.450Z,-1.89
2023-03-28T22:35:05.999Z,-1.95
2023-03-28T22:37:33.221Z,-2.02
2023-03-28T22:39:59.798Z,-1.87
2023-03-28T22:42:26.496Z,-1.89
2023-03-28T22:44:53.066Z,-2.07
2023-03-28T22:47:19.632Z,-1.97
2023-03-28T22:49:46.197Z,-1.91
2023-03-28T22:52:13.717Z,-1.94
2023-03-28T22:54:42.680Z,-1.83
2023-03-28T22:57:09.391Z,-1.67
2023-03-28T22:59:36.655Z,-1.84
2023-03-28T23:02:03.692Z,-1.75
2023-03-28T23:04:30.394Z,-1.71
2023-03-28T23:06:58.716Z,-1.75
2023-03-28T23:09:27.715Z,-1.89
2023-03-28T23:11:55.133Z,-1.82
2023-03-28T23:14:22.219Z,-1.95
2023-03-28T23:16:48.885Z,-1.98
2023-03-28T23:19:16.426Z,-1.84
2023-03-28T23:21:44.007Z,-1.88
2023-03-28T23:24:11.892Z,-1.79
2023-03-28T23:26:38.430Z,-1.77
2023-03-28T23:29:05.415Z,-1.79
2023-03-28T23:31:32.012Z,-1.73
2023-03-28T23:33:58.576Z,-1.71
2023-03-28T23:36:26.211Z,-1.76
2023-03-28T23:39:00.873Z,-1.87
2023-03-28T23:41:27.426Z,-1.89
2023-03-28T23:43:53.919Z,-2.01
2023-03-28T23:46:20.751Z,-1.94
2023-03-28T23:48:47.381Z,-1.97
2023-03-28T23:51:14.191Z,-1.98
2023-03-28T23:53:41.016Z,-1.99
2023-03-28T23:56:08.062Z,-1.98
2023-03-28T23:58:34.585Z,-2.11
